logo
Search for airport 
image banner adimage banner adimage banner ad
image banner ad

MMHCV - Club De Golf Cuernavaca

Located in Cuernavaca, Mexico

ICAO - , IATA -

Data provided by Airmate  

General information

Coordinates: N18°54'37" W99°14'16"
Elevation is 4901 feet MSL.
Magnetic variation is 4° East
View others Airports in Moreloa

Operational data

Special qualification required
Current time UTC:
Current local time:
TAF: TAF MMCB 260446Z 2606/2706 04005KT P6SM SKC FM261600 18005KT P6SM SCT020 BKN250 FM270300 00000KT P6SM SKC
View NOTAMs / SUP AIP / TFR affecting this airport [VIEW]
Communications frequencies: [VIEW]

Runways:

Airport contact information

Address: Cuernavaca Mexico

Satellite view of MMHCV